Pella, Iowa
Current Conditions -  °F | °C
As of 10:35 PM on Saturday 22 Nov 2014 (Local Time) from KPEA Reporting Station
Overcast Overcast  
Wind Chill: 54°   Ceiling: 1900
Heat Index: 54°   Visibility: 10mi
Dew Point: 50°   Wind: 13mph
Humidity: 88%   Direction: 190°S
Pressure: 29.69"   Gusts: 18mph
Location:  41.41°N, 92.92°W
Report Text: KPEA 230435Z AUTO 19011G16KT 10SM OVC019 12/10 A2969 RMK AO2 T01200100
Loading
Personal Weather Stations






























Interactive Weather Map New forecast layout! Learn more

10-Day Weather Forecast

Advertisements
Track Severe Weather on mobile